Time;durP1;ratioP1;P1;durP2;ratioP2;P2;SDS_P1;SDS_P2;PMS_P1;PMS_P2;Temp;Humidity;BMP_temperature;BMP_pressure;BME280_temperature;BME280_humidity;BME280_pressure;Samples;Min_cycle;Max_cycle;Signal;HPM_P1;HPM_P2
2023/11/23 00:00:43;;;;;;;18.23;10.53;;;5.80;99.90;;;;;;5048435;28;20283;-48
2023/11/23 00:03:10;;;;;;;17.07;10.60;;;5.90;99.90;;;;;;5060905;28;20210;-53
2023/11/23 00:05:38;;;;;;;15.23;11.07;;;6.00;99.90;;;;;;5049434;28;21517;-50
2023/11/23 00:08:06;;;;;;;15.60;9.20;;;6.00;99.90;;;;;;5033403;28;20553;-49
2023/11/23 00:10:32;;;;;;;18.70;12.33;;;6.10;99.90;;;;;;5046760;28;20267;-53
2023/11/23 00:12:59;;;;;;;18.00;11.27;;;6.10;99.90;;;;;;5060426;28;20223;-50
2023/11/23 00:15:26;;;;;;;16.27;11.13;;;6.10;99.90;;;;;;5057138;28;20802;-51
2023/11/23 00:17:53;;;;;;;14.63;10.33;;;6.10;99.90;;;;;;5050314;28;20199;-50
2023/11/23 00:20:20;;;;;;;14.70;10.33;;;6.10;99.90;;;;;;5057121;28;20195;-52
2023/11/23 00:22:48;;;;;;;20.43;11.90;;;6.20;99.90;;;;;;5023264;28;20316;-50
2023/11/23 00:25:15;;;;;;;18.80;11.20;;;6.20;99.90;;;;;;5060134;28;20206;-53
2023/11/23 00:27:41;;;;;;;14.83;10.57;;;6.30;99.90;;;;;;5059310;28;20240;-52
2023/11/23 00:30:09;;;;;;;13.97;9.17;;;6.30;99.90;;;;;;5061013;28;20683;-52
2023/11/23 00:32:36;;;;;;;15.50;10.70;;;6.40;99.90;;;;;;5046647;28;20230;-51
2023/11/23 00:35:03;;;;;;;15.67;10.83;;;6.40;99.90;;;;;;5061668;28;20205;-52
2023/11/23 00:37:31;;;;;;;20.33;12.07;;;6.40;99.90;;;;;;5052324;28;20271;-56
2023/11/23 00:39:59;;;;;;;21.43;12.17;;;6.50;99.90;;;;;;5034765;28;20657;-54
2023/11/23 00:42:26;;;;;;;16.83;9.37;;;6.50;99.90;;;;;;5060447;28;20272;-52
2023/11/23 00:44:53;;;;;;;21.73;12.93;;;6.60;99.90;;;;;;5064562;28;20198;-54
2023/11/23 00:47:20;;;;;;;17.93;10.73;;;6.60;99.90;;;;;;5060770;28;20726;-52
2023/11/23 00:49:47;;;;;;;20.40;12.03;;;6.60;99.90;;;;;;5050005;28;20221;-53
2023/11/23 00:52:14;;;;;;;19.63;11.73;;;6.70;99.90;;;;;;5057284;28;20205;-52
2023/11/23 00:54:42;;;;;;;16.87;10.17;;;6.70;99.90;;;;;;5028681;28;20305;-54
2023/11/23 00:57:11;;;;;;;17.63;9.60;;;6.70;99.90;;;;;;5062658;28;20213;-49
2023/11/23 00:59:37;;;;;;;18.80;11.57;;;6.70;99.90;;;;;;5054041;28;20938;-55
2023/11/23 01:02:05;;;;;;;23.53;12.50;;;6.80;99.90;;;;;;5062395;28;20214;-53
2023/11/23 01:04:32;;;;;;;18.63;12.23;;;6.80;99.90;;;;;;5049159;28;20786;-51
2023/11/23 01:07:00;;;;;;;20.40;12.27;;;6.80;99.90;;;;;;5060826;28;20653;-52
2023/11/23 01:09:27;;;;;;;18.63;11.63;;;6.90;99.90;;;;;;5026283;28;20207;-54
2023/11/23 01:11:54;;;;;;;21.07;12.00;;;6.90;99.90;;;;;;5062356;28;20268;-52
2023/11/23 01:14:22;;;;;;;18.77;11.53;;;7.00;99.90;;;;;;5061223;28;20568;-56
2023/11/23 01:16:49;;;;;;;22.17;12.27;;;7.00;99.90;;;;;;5064264;28;20197;-54
2023/11/23 01:19:16;;;;;;;21.63;11.83;;;7.00;99.90;;;;;;5049317;28;20214;-50
2023/11/23 01:21:43;;;;;;;25.57;13.63;;;7.10;99.90;;;;;;5063876;28;20280;-51
2023/11/23 01:24:11;;;;;;;19.40;12.33;;;7.10;99.90;;;;;;5049827;28;20222;-55
2023/11/23 01:26:38;;;;;;;19.67;10.83;;;7.10;99.90;;;;;;5034062;28;20281;-54
2023/11/23 01:29:05;;;;;;;20.17;12.40;;;7.10;99.90;;;;;;5058459;28;20268;-53
2023/11/23 01:31:34;;;;;;;24.17;13.00;;;7.10;99.90;;;;;;5062510;28;20203;-53
2023/11/23 01:34:00;;;;;;;23.73;13.20;;;7.10;99.90;;;;;;5059874;28;20233;-54
2023/11/23 01:36:28;;;;;;;17.43;10.53;;;7.10;99.90;;;;;;5050175;28;20233;-52
2023/11/23 01:38:55;;;;;;;22.10;13.33;;;7.20;99.90;;;;;;5059549;28;20198;-53
2023/11/23 01:41:22;;;;;;;14.70;9.60;;;7.20;99.90;;;;;;5025911;28;20218;-51
2023/11/23 01:43:49;;;;;;;21.83;13.30;;;7.20;99.90;;;;;;5061594;28;20746;-50
2023/11/23 01:46:16;;;;;;;22.67;11.43;;;7.30;99.90;;;;;;5059523;28;20268;-52
2023/11/23 01:48:44;;;;;;;21.87;11.47;;;7.30;99.90;;;;;;5059473;28;20203;-48
2023/11/23 01:51:13;;;;;;;26.37;13.67;;;7.30;99.90;;;;;;5043376;28;20201;-49
2023/11/23 01:53:40;;;;;;;20.37;12.67;;;7.40;99.90;;;;;;5062135;28;20778;-50
2023/11/23 01:56:10;;;;;;;20.77;12.30;;;7.40;99.90;;;;;;5022675;28;20535;-52
2023/11/23 01:58:37;;;;;;;25.07;13.93;;;7.50;99.90;;;;;;5061700;28;20329;-51
2023/11/23 02:01:05;;;;;;;23.37;12.57;;;7.50;99.90;;;;;;5058583;28;20214;-52
2023/11/23 02:03:32;;;;;;;24.60;13.43;;;7.50;99.90;;;;;;5062051;28;20255;-49
2023/11/23 02:06:00;;;;;;;21.47;13.73;;;7.50;99.90;;;;;;5056036;28;20289;-48
2023/11/23 02:08:27;;;;;;;23.93;12.13;;;7.60;99.90;;;;;;5056916;28;20199;-50
2023/11/23 02:10:55;;;;;;;20.50;12.50;;;7.60;99.90;;;;;;5042341;28;20207;-50
2023/11/23 02:13:22;;;;;;;23.77;12.70;;;7.70;99.90;;;;;;5042829;28;21006;-49
2023/11/23 02:15:49;;;;;;;22.57;12.90;;;7.60;99.90;;;;;;5061026;28;20224;-49
2023/11/23 02:18:16;;;;;;;23.10;13.50;;;7.70;99.90;;;;;;5057604;28;20202;-51
2023/11/23 02:20:46;;;;;;;19.70;13.20;;;7.70;99.90;;;;;;5060392;28;20229;-53
2023/11/23 02:23:14;;;;;;;21.47;12.93;;;7.80;99.90;;;;;;5045893;28;20223;-52
2023/11/23 02:25:43;;;;;;;18.23;12.33;;;7.80;99.90;;;;;;5058637;28;20199;-50
2023/11/23 02:28:10;;;;;;;22.03;13.83;;;7.80;99.90;;;;;;5029190;28;20314;-55
2023/11/23 02:30:36;;;;;;;25.13;14.33;;;7.80;99.90;;;;;;5061638;28;20667;-53
2023/11/23 02:33:05;;;;;;;19.90;13.93;;;7.80;99.90;;;;;;5058049;28;20249;-53
2023/11/23 02:35:33;;;;;;;20.87;11.63;;;7.90;99.90;;;;;;5061061;28;20199;-53
2023/11/23 02:37:59;;;;;;;23.43;13.50;;;7.90;99.90;;;;;;5048430;28;20737;-53
2023/11/23 02:40:27;;;;;;;23.73;13.63;;;8.00;99.90;;;;;;5061051;28;20182;-51
2023/11/23 02:42:56;;;;;;;25.03;14.23;;;8.00;99.90;;;;;;5031870;28;20246;-52
2023/11/23 02:45:23;;;;;;;26.80;14.87;;;8.00;99.90;;;;;;5058833;28;20203;-50
2023/11/23 02:47:50;;;;;;;24.27;14.17;;;8.00;99.90;;;;;;5062367;28;20595;-53
2023/11/23 02:50:17;;;;;;;19.50;12.53;;;8.00;99.90;;;;;;5057777;28;20271;-53
2023/11/23 02:52:43;;;;;;;24.07;14.67;;;8.00;99.90;;;;;;5050028;28;20219;-49
2023/11/23 02:55:11;;;;;;;22.00;14.07;;;8.10;99.90;;;;;;5058589;28;20306;-51
2023/11/23 02:57:38;;;;;;;24.63;14.63;;;8.10;99.90;;;;;;5060308;28;20203;-53
2023/11/23 03:00:08;;;;;;;25.20;13.73;;;8.20;99.90;;;;;;5028655;28;20235;-53
2023/11/23 03:02:35;;;;;;;24.67;14.07;;;8.20;99.90;;;;;;5059241;28;20268;-51
2023/11/23 03:05:03;;;;;;;25.53;14.23;;;8.30;99.90;;;;;;5058073;28;20242;-52
2023/11/23 03:07:30;;;;;;;25.10;14.37;;;8.20;99.90;;;;;;5061123;28;20273;-54
2023/11/23 03:09:57;;;;;;;28.13;15.17;;;8.20;99.90;;;;;;5050174;28;20206;-51
2023/11/23 03:12:24;;;;;;;24.40;13.90;;;8.30;99.90;;;;;;5059572;28;20194;-48
2023/11/23 03:14:51;;;;;;;16.53;11.33;;;8.30;99.90;;;;;;5030969;28;20742;-52
2023/11/23 03:17:19;;;;;;;21.23;12.10;;;8.30;99.90;;;;;;5059012;28;20187;-49
2023/11/23 03:19:46;;;;;;;18.27;12.07;;;8.30;99.90;;;;;;5061241;28;20206;-48
2023/11/23 03:22:13;;;;;;;20.03;12.83;;;8.30;99.90;;;;;;5056606;28;20916;-51
2023/11/23 03:24:40;;;;;;;21.23;13.43;;;8.30;99.90;;;;;;5050268;28;20946;-48
2023/11/23 03:27:09;;;;;;;19.80;13.03;;;8.30;99.90;;;;;;5055761;28;20203;-51
2023/11/23 03:29:36;;;;;;;20.60;13.40;;;8.40;99.90;;;;;;5030893;28;20620;-51
2023/11/23 03:32:03;;;;;;;19.17;12.73;;;8.30;99.90;;;;;;5059844;28;20198;-51
2023/11/23 03:34:31;;;;;;;21.23;13.17;;;8.30;99.90;;;;;;5061016;28;20563;-51
2023/11/23 03:36:58;;;;;;;15.73;11.20;;;8.40;99.90;;;;;;5059787;28;20209;-52
2023/11/23 03:39:24;;;;;;;17.93;12.23;;;8.40;99.90;;;;;;5060127;28;20186;-49
2023/11/23 03:41:51;;;;;;;20.47;13.23;;;8.40;99.90;;;;;;5051254;28;20233;-52
2023/11/23 03:44:18;;;;;;;16.17;11.57;;;8.40;99.90;;;;;;5058728;28;21000;-49
2023/11/23 03:46:45;;;;;;;22.87;12.93;;;8.40;99.90;;;;;;5031966;28;21297;-51
2023/11/23 03:49:12;;;;;;;24.23;13.80;;;8.40;99.90;;;;;;5055724;28;20187;-51
2023/11/23 03:51:40;;;;;;;18.40;12.87;;;8.40;99.90;;;;;;5061517;28;20244;-54
2023/11/23 03:54:08;;;;;;;20.57;12.37;;;8.50;99.90;;;;;;5056414;28;20314;-49
2023/11/23 03:56:37;;;;;;;21.20;13.07;;;8.50;99.90;;;;;;5051064;28;20790;-48
2023/11/23 03:59:04;;;;;;;18.03;12.53;;;8.50;99.90;;;;;;5059150;28;20726;-51
2023/11/23 04:01:32;;;;;;;20.10;12.87;;;8.60;99.90;;;;;;5030307;28;20244;-50
2023/11/23 04:03:59;;;;;;;22.37;13.97;;;8.60;99.90;;;;;;5060066;28;20308;-52
2023/11/23 04:06:25;;;;;;;16.83;12.03;;;8.60;99.90;;;;;;5060085;28;20256;-53
2023/11/23 04:08:53;;;;;;;22.23;13.90;;;8.60;99.90;;;;;;5061296;28;20253;-54
2023/11/23 04:11:21;;;;;;;22.23;13.20;;;8.70;99.90;;;;;;5051026;28;20206;-53
2023/11/23 04:13:48;;;;;;;19.70;11.30;;;8.70;99.90;;;;;;5057575;28;20214;-50
2023/11/23 04:16:15;;;;;;;19.83;12.53;;;8.70;99.90;;;;;;5031726;28;20215;-50
2023/11/23 04:18:44;;;;;;;19.97;13.63;;;8.70;99.90;;;;;;5064402;28;20198;-52
2023/11/23 04:21:11;;;;;;;20.70;13.43;;;8.70;99.90;;;;;;5059772;28;20194;-54
2023/11/23 04:23:37;;;;;;;19.60;12.87;;;8.70;99.90;;;;;;5064999;28;20219;-49
2023/11/23 04:26:06;;;;;;;19.87;11.97;;;8.70;99.90;;;;;;5054647;28;20665;-51
2023/11/23 04:28:35;;;;;;;20.97;12.93;;;8.80;99.90;;;;;;5050429;28;20211;-51
2023/11/23 04:31:03;;;;;;;19.67;13.43;;;8.80;99.90;;;;;;5063989;28;20194;-51
2023/11/23 04:33:29;;;;;;;15.40;10.53;;;8.80;99.90;;;;;;5032173;28;20218;-51
2023/11/23 04:35:56;;;;;;;22.23;13.33;;;8.90;99.90;;;;;;5063016;28;20295;-52
2023/11/23 04:38:24;;;;;;;19.17;13.23;;;8.90;99.90;;;;;;5063930;28;20252;-54
2023/11/23 04:40:51;;;;;;;22.67;12.87;;;8.90;99.90;;;;;;5061093;28;20197;-51
2023/11/23 04:43:19;;;;;;;19.13;12.13;;;8.90;99.90;;;;;;5054703;28;20754;-50
2023/11/23 04:45:45;;;;;;;15.23;11.03;;;9.00;99.90;;;;;;5060990;28;20454;-54
2023/11/23 04:48:12;;;;;;;19.20;11.70;;;9.00;99.90;;;;;;5034472;28;20260;-55
2023/11/23 04:50:39;;;;;;;21.23;12.00;;;9.10;99.90;;;;;;5060943;28;20194;-52
2023/11/23 04:53:06;;;;;;;14.83;10.20;;;9.10;99.90;;;;;;5064617;28;20223;-51
2023/11/23 04:55:33;;;;;;;23.87;12.70;;;9.10;99.90;;;;;;5059578;28;20190;-51
2023/11/23 04:58:00;;;;;;;21.80;11.17;;;9.20;99.90;;;;;;5053281;28;20754;-45
2023/11/23 05:00:30;;;;;;;19.97;11.60;;;9.20;99.90;;;;;;5054034;28;20207;-48
2023/11/23 05:02:57;;;;;;;17.63;10.50;;;9.30;99.90;;;;;;5018453;28;20226;-53
2023/11/23 05:05:24;;;;;;;18.37;10.70;;;9.30;99.90;;;;;;5054527;28;20191;-51
2023/11/23 05:07:51;;;;;;;18.20;9.07;;;9.40;99.90;;;;;;5053734;28;20206;-52
2023/11/23 05:10:19;;;;;;;21.43;10.03;;;9.40;99.90;;;;;;5051679;28;20202;-49
2023/11/23 05:12:46;;;;;;;19.07;10.13;;;9.50;99.90;;;;;;5063471;28;20218;-50
2023/11/23 05:15:13;;;;;;;14.90;9.20;;;9.50;99.90;;;;;;5050146;28;20994;-51
2023/11/23 05:17:41;;;;;;;16.83;9.47;;;9.60;99.90;;;;;;5062402;28;20191;-53
2023/11/23 05:20:09;;;;;;;16.37;8.73;;;9.60;99.90;;;;;;5031117;28;20231;-52
2023/11/23 05:22:35;;;;;;;14.67;7.63;;;9.70;99.90;;;;;;5054935;28;20688;-49
2023/11/23 05:25:03;;;;;;;15.23;7.87;;;9.70;99.90;;;;;;5052788;28;20202;-53
2023/11/23 05:27:29;;;;;;;15.97;8.77;;;9.80;99.90;;;;;;5062594;28;20195;-51
2023/11/23 05:29:56;;;;;;;17.17;8.17;;;9.80;99.90;;;;;;5049974;28;20596;-53
2023/11/23 05:32:23;;;;;;;15.20;6.63;;;9.80;99.90;;;;;;5058712;28;20186;-54
2023/11/23 05:34:52;;;;;;;14.70;7.47;;;9.90;99.90;;;;;;5032797;28;20700;-46
2023/11/23 05:37:18;;;;;;;14.30;6.60;;;9.90;99.90;;;;;;5045776;28;20814;-47
2023/11/23 05:39:45;;;;;;;14.53;6.70;;;10.00;99.90;;;;;;5053934;28;20204;-49
2023/11/23 05:42:12;;;;;;;19.53;6.70;;;10.00;99.90;;;;;;5051584;28;20283;-48
2023/11/23 05:44:39;;;;;;;11.10;6.03;;;10.00;99.90;;;;;;5062878;28;20190;-47
2023/11/23 05:47:06;;;;;;;13.10;6.47;;;10.00;99.90;;;;;;5046144;28;20207;-53
2023/11/23 05:49:33;;;;;;;14.90;5.90;;;10.10;99.90;;;;;;5031312;28;20738;-52
2023/11/23 05:52:01;;;;;;;18.90;5.43;;;10.10;99.90;;;;;;5060906;28;20563;-49
2023/11/23 05:54:28;;;;;;;14.27;5.43;;;10.10;99.90;;;;;;5042772;28;20291;-43
2023/11/23 05:56:55;;;;;;;17.07;6.17;;;10.10;99.90;;;;;;5059573;28;20617;-51
2023/11/23 05:59:22;;;;;;;17.17;6.20;;;10.10;99.90;;;;;;5053429;28;20287;-44
2023/11/23 06:01:48;;;;;;;15.80;5.33;;;10.10;99.90;;;;;;5048614;28;20204;-50
2023/11/23 06:04:15;;;;;;;12.93;4.93;;;10.10;99.90;;;;;;5030042;28;20238;-43
2023/11/23 06:06:42;;;;;;;13.10;5.90;;;10.10;99.90;;;;;;5062990;28;20199;-44
2023/11/23 06:09:10;;;;;;;19.03;5.80;;;10.10;99.90;;;;;;5050208;28;20186;-51
2023/11/23 06:11:37;;;;;;;18.83;5.23;;;10.10;99.90;;;;;;5053479;28;20331;-48
2023/11/23 06:14:04;;;;;;;11.73;4.60;;;10.10;99.90;;;;;;5048705;28;20218;-50
2023/11/23 06:16:31;;;;;;;13.53;5.00;;;10.10;99.90;;;;;;5047178;28;20213;-46
2023/11/23 06:18:58;;;;;;;14.23;5.00;;;10.20;99.90;;;;;;5043611;28;20655;-51
2023/11/23 06:21:25;;;;;;;13.53;5.30;;;10.20;99.90;;;;;;5049378;28;20773;-47
2023/11/23 06:23:52;;;;;;;12.50;4.93;;;10.20;99.90;;;;;;5059093;28;20704;-49
2023/11/23 06:26:20;;;;;;;16.03;4.10;;;10.20;99.90;;;;;;5045152;28;20206;-46
2023/11/23 06:28:48;;;;;;;14.27;4.67;;;10.20;99.90;;;;;;5053468;28;20214;-44
2023/11/23 06:31:15;;;;;;;14.70;4.70;;;10.20;99.90;;;;;;5047895;28;20213;-44
2023/11/23 06:33:41;;;;;;;10.47;4.50;;;10.20;99.90;;;;;;5057490;28;20706;-51
2023/11/23 06:36:10;;;;;;;11.07;3.50;;;10.20;99.90;;;;;;5019058;28;20214;-46
2023/11/23 06:38:37;;;;;;;10.70;4.13;;;10.30;99.90;;;;;;5058736;28;20251;-49
2023/11/23 06:41:05;;;;;;;17.17;3.63;;;10.20;99.90;;;;;;5048856;28;20202;-46
2023/11/23 06:43:33;;;;;;;16.47;4.13;;;10.30;99.90;;;;;;5050012;28;20305;-44
2023/11/23 06:46:00;;;;;;;14.80;3.80;;;10.30;99.90;;;;;;5048141;28;20248;-46
2023/11/23 06:48:26;;;;;;;11.63;4.13;;;10.30;99.90;;;;;;5050874;28;20230;-46
2023/11/23 06:50:52;;;;;;;13.83;4.10;;;10.30;99.90;;;;;;5026735;28;20234;-51
2023/11/23 06:53:21;;;;;;;14.63;4.20;;;10.30;99.90;;;;;;5059542;28;20287;-44
2023/11/23 06:55:48;;;;;;;14.63;3.83;;;10.30;99.90;;;;;;5048495;28;20748;-50
2023/11/23 06:58:15;;;;;;;9.53;3.37;;;10.30;99.90;;;;;;5045854;28;20745;-50
2023/11/23 07:00:43;;;;;;;15.23;3.10;;;10.30;99.90;;;;;;5055019;28;20203;-45
2023/11/23 07:03:10;;;;;;;6.63;3.53;;;10.30;99.90;;;;;;5037502;28;20222;-46
2023/11/23 07:05:37;;;;;;;12.90;3.47;;;10.30;99.90;;;;;;5026497;28;20207;-50
2023/11/23 07:08:04;;;;;;;13.97;3.43;;;10.30;99.90;;;;;;5052757;28;20206;-51
2023/11/23 07:10:33;;;;;;;21.37;3.87;;;10.30;99.90;;;;;;5052485;28;20210;-44
2023/11/23 07:13:01;;;;;;;10.03;2.80;;;10.30;99.90;;;;;;5058126;28;20277;-48
2023/11/23 07:15:28;;;;;;;10.30;3.07;;;10.40;99.90;;;;;;5043228;28;20203;-51
2023/11/23 07:17:58;;;;;;;8.90;3.00;;;10.40;99.90;;;;;;5050511;28;20225;-47
2023/11/23 07:20:25;;;;;;;11.87;3.50;;;10.40;99.90;;;;;;5038304;28;20562;-45
2023/11/23 07:22:52;;;;;;;10.50;3.13;;;10.40;99.90;;;;;;5020804;28;20214;-50
2023/11/23 07:25:20;;;;;;;13.67;3.40;;;10.40;99.90;;;;;;5055292;28;20197;-46
2023/11/23 07:27:47;;;;;;;12.10;3.43;;;10.40;99.90;;;;;;5049019;28;20202;-50
2023/11/23 07:30:14;;;;;;;12.93;2.77;;;10.40;99.90;;;;;;5051628;28;20230;-47
2023/11/23 07:32:41;;;;;;;17.40;3.33;;;10.40;99.90;;;;;;5051266;28;20214;-52
2023/11/23 07:35:09;;;;;;;16.73;3.07;;;10.40;99.90;;;;;;5049149;28;20268;-49
2023/11/23 07:37:36;;;;;;;11.13;3.43;;;10.40;99.90;;;;;;5029776;28;20218;-50
2023/11/23 07:40:12;;;;;;;19.97;3.60;;;10.40;99.90;;;;;;5051685;28;20277;-47
2023/11/23 07:42:41;;;;;;;11.33;3.13;;;10.40;99.90;;;;;;5051849;28;20229;-51
2023/11/23 07:45:08;;;;;;;14.53;2.90;;;10.50;99.90;;;;;;5051042;28;20214;-49
2023/11/23 07:47:37;;;;;;;18.33;2.97;;;10.50;99.90;;;;;;5065266;28;20205;-50
2023/11/23 07:50:04;;;;;;;18.30;3.43;;;10.50;99.90;;;;;;5050560;28;20747;-44
2023/11/23 07:52:32;;;;;;;12.57;3.57;;;10.40;99.90;;;;;;5034631;28;20285;-44
2023/11/23 07:54:59;;;;;;;12.80;3.30;;;10.50;99.90;;;;;;5051637;28;20203;-44
2023/11/23 07:57:27;;;;;;;12.37;3.27;;;10.50;99.90;;;;;;5057531;28;20327;-47
2023/11/23 07:59:56;;;;;;;10.47;3.50;;;10.50;99.90;;;;;;5052526;28;20237;-47
2023/11/23 08:02:24;;;;;;;11.70;3.60;;;10.50;99.90;;;;;;5059422;28;20195;-49
2023/11/23 08:04:51;;;;;;;11.47;3.30;;;10.50;99.90;;;;;;5046256;28;20210;-47
2023/11/23 08:07:18;;;;;;;12.80;3.00;;;10.50;99.90;;;;;;5064776;28;20190;-48
2023/11/23 08:09:47;;;;;;;12.87;3.27;;;10.60;99.90;;;;;;5025168;28;20211;-44
2023/11/23 08:12:14;;;;;;;11.80;3.33;;;10.60;99.90;;;;;;5052333;28;20268;-44
2023/11/23 08:14:41;;;;;;;13.47;2.90;;;10.60;99.90;;;;;;5059320;28;20239;-44
2023/11/23 08:17:08;;;;;;;15.13;2.90;;;10.60;99.90;;;;;;5056991;28;20198;-51
2023/11/23 08:19:35;;;;;;;12.97;3.73;;;10.60;99.90;;;;;;5049474;28;20248;-50
2023/11/23 08:22:05;;;;;;;8.90;1.90;;;10.70;99.90;;;;;;5063394;28;20210;-46
2023/11/23 08:24:32;;;;;;;19.80;3.30;;;10.70;99.90;;;;;;5022558;28;20218;-49
2023/11/23 08:27:01;;;;;;;10.73;2.93;;;10.70;99.90;;;;;;5057115;28;20667;-46
2023/11/23 08:29:28;;;;;;;15.87;2.67;;;10.70;99.90;;;;;;5045876;28;20198;-49
2023/11/23 08:31:55;;;;;;;9.80;2.50;;;10.80;99.90;;;;;;5054974;28;20998;-45
2023/11/23 08:34:22;;;;;;;10.73;2.70;;;10.80;99.90;;;;;;5064591;28;20264;-48
2023/11/23 08:36:49;;;;;;;6.40;2.10;;;10.80;99.90;;;;;;5048760;28;20194;-43
2023/11/23 08:39:16;;;;;;;17.50;3.43;;;10.80;99.90;;;;;;5064380;28;20688;-46
2023/11/23 08:41:43;;;;;;;11.57;2.70;;;10.80;99.90;;;;;;5016161;28;20222;-44
2023/11/23 08:44:11;;;;;;;10.07;2.83;;;10.80;99.90;;;;;;5041612;28;20230;-48
2023/11/23 08:46:41;;;;;;;11.47;2.67;;;10.80;99.90;;;;;;5061030;28;20195;-49
2023/11/23 08:49:10;;;;;;;13.47;2.67;;;10.80;99.90;;;;;;5057113;28;20215;-46
2023/11/23 08:51:37;;;;;;;16.10;3.10;;;10.80;99.90;;;;;;5049118;28;20199;-50
2023/11/23 08:54:05;;;;;;;10.87;2.40;;;10.80;99.90;;;;;;5061930;28;20765;-48
2023/11/23 08:56:32;;;;;;;16.90;2.60;;;10.80;99.90;;;;;;5024038;28;20281;-48
2023/11/23 08:58:59;;;;;;;15.27;2.70;;;10.80;99.90;;;;;;5053414;28;20213;-46
2023/11/23 09:01:28;;;;;;;14.47;2.17;;;10.80;99.90;;;;;;5051770;28;20256;-50
2023/11/23 09:03:55;;;;;;;10.77;2.60;;;10.80;99.90;;;;;;5054689;28;20299;-48
2023/11/23 09:06:22;;;;;;;9.03;2.20;;;10.80;99.90;;;;;;5061546;28;20282;-50
2023/11/23 09:08:49;;;;;;;20.03;3.37;;;10.80;99.90;;;;;;5052556;28;20956;-47
2023/11/23 09:11:16;;;;;;;11.13;2.63;;;10.80;99.90;;;;;;5032920;28;20231;-47
2023/11/23 09:13:44;;;;;;;13.83;2.90;;;10.80;99.90;;;;;;5050956;28;20263;-44
2023/11/23 09:16:13;;;;;;;11.73;2.50;;;10.80;99.90;;;;;;5051953;28;20216;-45
2023/11/23 09:18:42;;;;;;;9.03;2.53;;;10.80;99.90;;;;;;5053459;28;20203;-44
2023/11/23 09:21:10;;;;;;;10.37;2.80;;;10.80;99.90;;;;;;5059311;28;20183;-44
2023/11/23 09:23:37;;;;;;;15.77;3.10;;;10.80;99.90;;;;;;5050835;28;20242;-48
2023/11/23 09:26:05;;;;;;;12.83;3.00;;;10.80;99.90;;;;;;5023072;28;20336;-44
2023/11/23 09:28:32;;;;;;;18.40;3.00;;;10.90;99.90;;;;;;5051392;28;20203;-47
2023/11/23 09:30:59;;;;;;;11.70;3.30;;;10.90;99.90;;;;;;5048045;28;20256;-47
2023/11/23 09:33:26;;;;;;;8.73;2.67;;;10.90;99.90;;;;;;5057192;28;20202;-45
2023/11/23 09:35:54;;;;;;;13.83;2.97;;;10.90;99.90;;;;;;5058469;28;20215;-49
2023/11/23 09:38:21;;;;;;;9.60;2.50;;;10.90;99.90;;;;;;5053694;28;20252;-46
2023/11/23 09:40:50;;;;;;;10.23;2.87;;;10.90;99.90;;;;;;5062041;28;20242;-47
2023/11/23 09:43:16;;;;;;;12.83;3.20;;;10.90;99.90;;;;;;5031100;28;20231;-47
2023/11/23 09:45:44;;;;;;;14.77;2.70;;;11.00;99.90;;;;;;5056103;28;20287;-50
2023/11/23 09:48:12;;;;;;;8.33;1.80;;;11.00;99.90;;;;;;5058679;28;20511;-47
2023/11/23 09:50:39;;;;;;;9.73;3.43;;;11.00;99.90;;;;;;5056474;28;20283;-46
2023/11/23 09:53:11;;;;;;;18.40;3.63;;;11.00;99.90;;;;;;5050520;28;20210;-50
2023/11/23 09:55:38;;;;;;;8.77;3.10;;;11.00;99.90;;;;;;5062394;28;20198;-46
2023/11/23 09:58:05;;;;;;;14.40;2.50;;;11.00;99.90;;;;;;5036256;28;20207;-48
2023/11/23 10:00:35;;;;;;;10.53;2.50;;;11.00;99.90;;;;;;5058951;28;20206;-47
2023/11/23 10:03:07;;;;;;;11.47;2.50;;;11.00;99.90;;;;;;5052503;28;20898;-45
2023/11/23 10:05:34;;;;;;;9.63;2.40;;;11.00;99.90;;;;;;5052238;28;20215;-47
2023/11/23 10:08:01;;;;;;;10.67;3.00;;;11.00;99.90;;;;;;5046951;28;20191;-46
2023/11/23 10:10:30;;;;;;;7.70;2.67;;;11.00;99.90;;;;;;5063222;28;20261;-49
2023/11/23 10:12:57;;;;;;;11.13;3.20;;;11.00;99.90;;;;;;5053824;28;20319;-48
2023/11/23 10:15:26;;;;;;;11.87;2.53;;;11.00;99.90;;;;;;5041094;28;20679;-48
2023/11/23 10:17:53;;;;;;;8.50;2.63;;;11.10;99.90;;;;;;5053825;28;20285;-50
2023/11/23 10:20:20;;;;;;;9.70;2.07;;;11.10;99.90;;;;;;5052903;28;22971;-50
2023/11/23 10:22:48;;;;;;;14.40;2.50;;;11.10;99.90;;;;;;5061133;28;20222;-51
2023/11/23 10:25:29;;;;;;;7.77;2.47;;;11.20;99.90;;;;;;5052529;28;20222;-48
2023/11/23 10:27:58;;;;;;;10.13;2.47;;;11.20;99.90;;;;;;5052645;28;20199;-50
2023/11/23 10:30:25;;;;;;;12.60;2.30;;;11.20;99.90;;;;;;5033097;28;20205;-45
2023/11/23 10:32:53;;;;;;;15.17;2.20;;;11.20;99.90;;;;;;5052494;28;20230;-46
2023/11/23 10:35:21;;;;;;;11.23;2.00;;;11.30;99.90;;;;;;5060704;28;20199;-49
2023/11/23 10:37:53;;;;;;;12.53;2.97;;;11.30;99.90;;;;;;5055325;28;20248;-46
2023/11/23 10:40:21;;;;;;;11.83;2.50;;;11.30;99.90;;;;;;5052160;28;20222;-49
2023/11/23 10:42:49;;;;;;;14.07;2.37;;;11.40;99.90;;;;;;5047592;28;20238;-50
2023/11/23 10:45:19;;;;;;;13.73;2.50;;;11.40;99.90;;;;;;5036160;28;20207;-47
2023/11/23 10:47:47;;;;;;;15.67;2.30;;;11.50;99.90;;;;;;5047206;28;20210;-49
2023/11/23 10:50:15;;;;;;;9.73;2.57;;;11.50;99.90;;;;;;5061494;28;20241;-47
2023/11/23 10:52:43;;;;;;;7.77;3.33;;;11.50;99.90;;;;;;5049206;28;20735;-48
2023/11/23 10:55:11;;;;;;;9.33;2.17;;;11.60;99.90;;;;;;5060158;28;20259;-47
2023/11/23 10:57:40;;;;;;;8.97;2.03;;;11.60;99.90;;;;;;5043899;28;20194;-46
2023/11/23 11:00:11;;;;;;;15.63;2.13;;;11.60;99.90;;;;;;5050354;28;20203;-47
2023/11/23 11:02:41;;;;;;;12.40;2.50;;;11.60;99.90;;;;;;5024645;28;20226;-48
2023/11/23 11:05:23;;;;;;;13.87;2.70;;;11.60;99.90;;;;;;5056621;28;20626;-50
2023/11/23 11:08:01;;;;;;;9.67;2.63;;;11.60;99.90;;;;;;5045704;28;20202;-49
2023/11/23 11:10:28;;;;;;;12.13;2.27;;;11.60;99.90;;;;;;5059191;28;20237;-47
2023/11/23 11:13:08;;;;;;;10.77;2.40;;;11.60;99.90;;;;;;5052624;28;20296;-46
2023/11/23 11:15:35;;;;;;;11.40;2.30;;;11.70;99.90;;;;;;5060214;28;20759;-47
2023/11/23 11:18:06;;;;;;;6.13;2.27;;;11.70;99.90;;;;;;5034033;28;20215;-51
2023/11/23 11:20:36;;;;;;;23.27;3.20;;;11.70;99.90;;;;;;5055593;28;20217;-46
2023/11/23 11:23:03;;;;;;;16.03;2.23;;;11.70;99.90;;;;;;5060906;28;20246;-49
2023/11/23 11:25:40;;;;;;;14.77;3.23;;;11.70;99.90;;;;;;5050880;28;20241;-48
2023/11/23 11:28:13;;;;;;;7.17;2.47;;;11.70;99.90;;;;;;5052314;28;20214;-50
2023/11/23 11:30:40;;;;;;;13.77;2.60;;;11.70;99.90;;;;;;5057817;28;20190;-47
2023/11/23 11:33:11;;;;;;;10.53;2.07;;;11.70;99.90;;;;;;5031209;28;20695;-47
2023/11/23 11:35:46;;;;;;;9.87;2.70;;;11.70;99.90;;;;;;5056467;28;20238;-46
2023/11/23 11:38:15;;;;;;;15.77;3.37;;;11.70;99.90;;;;;;5058127;28;20792;-48
2023/11/23 11:40:44;;;;;;;10.97;2.50;;;11.60;99.90;;;;;;5052914;28;20198;-46
2023/11/23 11:43:11;;;;;;;9.60;2.50;;;11.60;99.90;;;;;;5049209;28;20220;-48
2023/11/23 11:45:38;;;;;;;10.13;1.90;;;11.70;99.90;;;;;;5058924;28;20217;-48
2023/11/23 11:48:05;;;;;;;14.20;2.80;;;11.60;99.90;;;;;;5037560;28;20252;-48
2023/11/23 11:50:35;;;;;;;10.20;2.30;;;11.70;99.90;;;;;;5052839;28;20197;-52
2023/11/23 11:53:02;;;;;;;15.00;3.20;;;11.70;99.90;;;;;;5058436;28;20218;-49
2023/11/23 11:55:29;;;;;;;12.30;2.73;;;11.70;99.90;;;;;;5052924;28;20756;-46
2023/11/23 11:57:57;;;;;;;11.10;2.80;;;11.70;99.90;;;;;;5060837;28;20194;-48
2023/11/23 12:00:25;;;;;;;11.97;2.60;;;11.70;99.90;;;;;;5052268;28;20188;-46
2023/11/23 12:02:52;;;;;;;11.63;2.20;;;11.70;99.90;;;;;;5053652;28;20219;-50
2023/11/23 12:05:22;;;;;;;13.47;3.57;;;11.70;99.90;;;;;;5025384;28;20218;-46
2023/11/23 12:08:00;;;;;;;10.90;2.70;;;11.70;99.90;;;;;;5061227;28;20648;-45
2023/11/23 12:10:37;;;;;;;6.83;2.23;;;11.70;99.90;;;;;;5050865;28;20211;-45
2023/11/23 12:13:03;;;;;;;13.33;2.43;;;11.80;99.90;;;;;;5056032;28;20599;-48
2023/11/23 12:15:30;;;;;;;14.90;2.63;;;11.70;99.90;;;;;;5055949;28;20191;-45
2023/11/23 12:17:58;;;;;;;13.53;2.67;;;11.70;99.90;;;;;;5055437;28;20199;-47
2023/11/23 12:20:35;;;;;;;13.23;3.03;;;11.70;99.90;;;;;;5039303;28;20205;-47
2023/11/23 12:23:04;;;;;;;15.93;2.73;;;11.70;99.90;;;;;;5056540;28;20244;-48
2023/11/23 12:25:33;;;;;;;9.73;2.60;;;11.70;99.90;;;;;;5049489;28;20357;-47
2023/11/23 12:27:59;;;;;;;10.73;2.00;;;11.60;99.90;;;;;;5058943;28;20195;-46
2023/11/23 12:30:26;;;;;;;9.37;3.30;;;11.60;99.90;;;;;;5049695;28;20194;-47
2023/11/23 12:32:53;;;;;;;17.20;2.90;;;11.60;99.90;;;;;;5062535;28;20758;-46
2023/11/23 12:35:20;;;;;;;14.00;2.60;;;11.50;99.90;;;;;;5033257;28;20225;-48
2023/11/23 12:37:47;;;;;;;15.17;2.93;;;11.50;99.90;;;;;;5063797;28;20202;-46
2023/11/23 12:40:15;;;;;;;18.03;2.70;;;11.50;99.90;;;;;;5060843;28;20202;-45